sensor_id;sensor_type;location;lat;lon;timestamp;pressure;altitude;pressure_sealevel;temperature;humidity
47556;BME280;33291;46.222;26.460;2023-03-21T00:00:39;96411.63;;;5.54;85.45
47556;BME280;33291;46.222;26.460;2023-03-21T00:03:05;96404.44;;;5.46;86.05
47556;BME280;33291;46.222;26.460;2023-03-21T00:05:31;96410.56;;;5.45;85.84
47556;BME280;33291;46.222;26.460;2023-03-21T00:07:56;96412.69;;;5.51;86.04
47556;BME280;33291;46.222;26.460;2023-03-21T00:10:22;96409.16;;;5.52;85.68
47556;BME280;33291;46.222;26.460;2023-03-21T00:12:47;96402.34;;;5.51;86.26
47556;BME280;33291;46.222;26.460;2023-03-21T00:15:23;96403.19;;;5.52;85.98
47556;BME280;33291;46.222;26.460;2023-03-21T00:17:52;96406.34;;;5.56;86.24
47556;BME280;33291;46.222;26.460;2023-03-21T00:20:22;96393.66;;;5.52;86.32
47556;BME280;33291;46.222;26.460;2023-03-21T00:22:48;96373.88;;;5.40;86.49
47556;BME280;33291;46.222;26.460;2023-03-21T00:25:13;96401.19;;;5.56;86.60
47556;BME280;33291;46.222;26.460;2023-03-21T00:27:39;96406.56;;;5.52;86.30
47556;BME280;33291;46.222;26.460;2023-03-21T00:30:05;96397.19;;;5.51;86.56
47556;BME280;33291;46.222;26.460;2023-03-21T00:32:31;96408.22;;;5.54;86.30
47556;BME280;33291;46.222;26.460;2023-03-21T00:34:56;96396.13;;;5.54;86.34
47556;BME280;33291;46.222;26.460;2023-03-21T00:37:22;96396.03;;;5.56;86.51
47556;BME280;33291;46.222;26.460;2023-03-21T00:39:47;96359.66;;;5.34;85.92
47556;BME280;33291;46.222;26.460;2023-03-21T00:42:17;96405.22;;;5.60;86.15
47556;BME280;33291;46.222;26.460;2023-03-21T00:44:43;96389.13;;;5.56;85.40
47556;BME280;33291;46.222;26.460;2023-03-21T00:47:11;96405.22;;;5.60;85.40
47556;BME280;33291;46.222;26.460;2023-03-21T00:49:37;96407.78;;;5.60;85.13
47556;BME280;33291;46.222;26.460;2023-03-21T00:52:08;96410.59;;;5.57;85.05
47556;BME280;33291;46.222;26.460;2023-03-21T00:54:35;96413.91;;;5.59;84.89
47556;BME280;33291;46.222;26.460;2023-03-21T00:57:02;96397.91;;;5.54;84.67
47556;BME280;33291;46.222;26.460;2023-03-21T00:59:28;96399.78;;;5.51;84.75
47556;BME280;33291;46.222;26.460;2023-03-21T01:01:54;96408.22;;;5.54;84.67
47556;BME280;33291;46.222;26.460;2023-03-21T01:04:21;96409.16;;;5.52;84.87
47556;BME280;33291;46.222;26.460;2023-03-21T01:06:51;96407.63;;;5.50;85.25
47556;BME280;33291;46.222;26.460;2023-03-21T01:09:19;96405.28;;;5.47;85.30
47556;BME280;33291;46.222;26.460;2023-03-21T01:11:45;96411.03;;;5.50;85.43
47556;BME280;33291;46.222;26.460;2023-03-21T01:14:13;96402.25;;;5.53;85.19
47556;BME280;33291;46.222;26.460;2023-03-21T01:16:38;96372.56;;;5.34;84.76
47556;BME280;33291;46.222;26.460;2023-03-21T01:19:05;96401.19;;;5.56;84.98
47556;BME280;33291;46.222;26.460;2023-03-21T01:21:31;96403.34;;;5.62;84.84
47556;BME280;33291;46.222;26.460;2023-03-21T01:23:57;96405.59;;;5.66;84.37
47556;BME280;33291;46.222;26.460;2023-03-21T01:26:24;96401.47;;;5.64;84.48
47556;BME280;33291;46.222;26.460;2023-03-21T01:28:50;96395.50;;;5.63;84.40
47556;BME280;33291;46.222;26.460;2023-03-21T01:31:16;96405.72;;;5.65;85.03
47556;BME280;33291;46.222;26.460;2023-03-21T01:33:43;96399.81;;;5.63;85.55
47556;BME280;33291;46.222;26.460;2023-03-21T01:36:14;96399.00;;;5.62;85.26
47556;BME280;33291;46.222;26.460;2023-03-21T01:38:41;96396.09;;;5.67;85.97
47556;BME280;33291;46.222;26.460;2023-03-21T01:41:06;96394.44;;;5.66;86.44
47556;BME280;33291;46.222;26.460;2023-03-21T01:43:34;96396.56;;;5.72;86.61
47556;BME280;33291;46.222;26.460;2023-03-21T01:46:16;96398.34;;;5.72;86.62
47556;BME280;33291;46.222;26.460;2023-03-21T01:48:49;96399.16;;;5.72;86.69
47556;BME280;33291;46.222;26.460;2023-03-21T01:51:16;96371.94;;;5.55;86.64
47556;BME280;33291;46.222;26.460;2023-03-21T01:53:42;96388.81;;;5.72;87.07
47556;BME280;33291;46.222;26.460;2023-03-21T01:56:13;96378.00;;;5.67;87.00
47556;BME280;33291;46.222;26.460;2023-03-21T01:58:41;96389.03;;;5.69;87.85
47556;BME280;33291;46.222;26.460;2023-03-21T02:01:08;96379.88;;;5.65;88.44
47556;BME280;33291;46.222;26.460;2023-03-21T02:03:34;96381.03;;;5.61;88.23
47556;BME280;33291;46.222;26.460;2023-03-21T02:06:09;96395.88;;;5.70;88.60
47556;BME280;33291;46.222;26.460;2023-03-21T02:08:36;96380.00;;;5.63;88.56
47556;BME280;33291;46.222;26.460;2023-03-21T02:11:02;96385.75;;;5.67;88.10
47556;BME280;33291;46.222;26.460;2023-03-21T02:13:28;96389.78;;;5.71;88.07
47556;BME280;33291;46.222;26.460;2023-03-21T02:21:39;96355.00;;;5.51;90.88
47556;BME280;33291;46.222;26.460;2023-03-21T02:27:08;96382.72;;;5.73;90.00
47556;BME280;33291;46.222;26.460;2023-03-21T02:37:56;96380.59;;;5.67;91.17
47556;BME280;33291;46.222;26.460;2023-03-21T02:43:53;96389.25;;;5.66;92.80
47556;BME280;33291;46.222;26.460;2023-03-21T02:46:21;96388.34;;;5.67;92.65
47556;BME280;33291;46.222;26.460;2023-03-21T02:48:59;96396.09;;;5.67;93.41
47556;BME280;33291;46.222;26.460;2023-03-21T02:51:27;96390.09;;;5.66;92.79
47556;BME280;33291;46.222;26.460;2023-03-21T02:54:06;96387.63;;;5.65;92.71
47556;BME280;33291;46.222;26.460;2023-03-21T02:56:34;96394.31;;;5.67;92.34
47556;BME280;33291;46.222;26.460;2023-03-21T02:59:02;96390.69;;;5.70;92.41
47556;BME280;33291;46.222;26.460;2023-03-21T03:01:28;96388.00;;;5.72;92.09
47556;BME280;33291;46.222;26.460;2023-03-21T03:03:53;96385.31;;;5.73;92.69
47556;BME280;33291;46.222;26.460;2023-03-21T03:06:26;96353.97;;;5.54;92.58
47556;BME280;33291;46.222;26.460;2023-03-21T03:09:29;96386.00;;;5.75;93.23
47556;BME280;33291;46.222;26.460;2023-03-21T03:12:11;96381.28;;;5.69;93.68
47556;BME280;33291;46.222;26.460;2023-03-21T03:14:54;96396.56;;;5.72;94.13
47556;BME280;33291;46.222;26.460;2023-03-21T03:17:41;96387.41;;;5.68;94.33
47556;BME280;33291;46.222;26.460;2023-03-21T03:22:53;96379.66;;;5.68;95.04
47556;BME280;33291;46.222;26.460;2023-03-21T03:25:27;96386.22;;;5.72;94.88
47556;BME280;33291;46.222;26.460;2023-03-21T03:27:55;96375.41;;;5.67;95.02
47556;BME280;33291;46.222;26.460;2023-03-21T03:30:24;96390.69;;;5.70;95.29
47556;BME280;33291;46.222;26.460;2023-03-21T03:32:55;96382.13;;;5.69;95.09
47556;BME280;33291;46.222;26.460;2023-03-21T03:35:22;96382.25;;;5.68;95.26
47556;BME280;33291;46.222;26.460;2023-03-21T03:37:55;96372.13;;;5.65;95.99
47556;BME280;33291;46.222;26.460;2023-03-21T03:40:29;96370.25;;;5.67;96.52
47556;BME280;33291;46.222;26.460;2023-03-21T03:43:03;96363.63;;;5.63;96.75
47556;BME280;33291;46.222;26.460;2023-03-21T03:45:33;96383.41;;;5.75;96.59
47556;BME280;33291;46.222;26.460;2023-03-21T03:48:39;96380.34;;;5.70;97.30
47556;BME280;33291;46.222;26.460;2023-03-21T03:51:16;96372.13;;;5.65;97.27
47556;BME280;33291;46.222;26.460;2023-03-21T03:53:50;96386.34;;;5.70;97.59
47556;BME280;33291;46.222;26.460;2023-03-21T03:56:18;96367.88;;;5.64;97.60
47556;BME280;33291;46.222;26.460;2023-03-21T03:58:45;96374.97;;;5.73;97.78
47556;BME280;33291;46.222;26.460;2023-03-21T04:01:10;96369.31;;;5.68;97.89
47556;BME280;33291;46.222;26.460;2023-03-21T04:03:39;96376.41;;;5.77;97.40
47556;BME280;33291;46.222;26.460;2023-03-21T04:06:06;96380.94;;;5.74;97.78
47556;BME280;33291;46.222;26.460;2023-03-21T04:08:31;96370.84;;;5.70;97.62
47556;BME280;33291;46.222;26.460;2023-03-21T04:10:57;96380.13;;;5.73;97.39
47556;BME280;33291;46.222;26.460;2023-03-21T04:13:22;96384.25;;;5.76;97.43
47556;BME280;33291;46.222;26.460;2023-03-21T04:15:48;96378.97;;;5.77;97.09
47556;BME280;33291;46.222;26.460;2023-03-21T04:18:13;96382.38;;;5.78;97.26
47556;BME280;33291;46.222;26.460;2023-03-21T04:20:39;96373.09;;;5.75;97.07
47556;BME280;33291;46.222;26.460;2023-03-21T04:23:05;96370.59;;;5.74;97.28
47556;BME280;33291;46.222;26.460;2023-03-21T04:25:34;96374.75;;;5.76;97.05
47556;BME280;33291;46.222;26.460;2023-03-21T04:28:00;96367.22;;;5.73;97.08
47556;BME280;33291;46.222;26.460;2023-03-21T04:30:26;96345.78;;;5.60;97.23
47556;BME280;33291;46.222;26.460;2023-03-21T04:32:51;96374.03;;;5.74;97.15
47556;BME280;33291;46.222;26.460;2023-03-21T04:35:25;96374.50;;;5.79;97.67
47556;BME280;33291;46.222;26.460;2023-03-21T04:37:51;96379.69;;;5.79;97.52
47556;BME280;33291;46.222;26.460;2023-03-21T04:40:17;96378.03;;;5.78;97.69
47556;BME280;33291;46.222;26.460;2023-03-21T04:42:43;96382.16;;;5.81;97.86
47556;BME280;33291;46.222;26.460;2023-03-21T04:45:09;96376.19;;;5.80;99.10
47556;BME280;33291;46.222;26.460;2023-03-21T04:47:35;96377.09;;;5.79;99.75
47556;BME280;33291;46.222;26.460;2023-03-21T04:50:00;96381.56;;;5.77;99.84
47556;BME280;33291;46.222;26.460;2023-03-21T04:52:26;96381.06;;;5.72;99.49
47556;BME280;33291;46.222;26.460;2023-03-21T04:54:51;96345.78;;;5.60;99.59
47556;BME280;33291;46.222;26.460;2023-03-21T04:57:17;96379.47;;;5.82;99.23
47556;BME280;33291;46.222;26.460;2023-03-21T04:59:42;96377.78;;;5.81;99.79
47556;BME280;33291;46.222;26.460;2023-03-21T05:02:08;96385.31;;;5.84;99.74
47556;BME280;33291;46.222;26.460;2023-03-21T05:04:33;96374.75;;;5.87;100.00
47556;BME280;33291;46.222;26.460;2023-03-21T05:06:59;96377.34;;;5.87;100.00
47556;BME280;33291;46.222;26.460;2023-03-21T05:09:24;96350.78;;;5.74;100.00
47556;BME280;33291;46.222;26.460;2023-03-21T05:11:50;96365.03;;;5.91;100.00
47556;BME280;33291;46.222;26.460;2023-03-21T05:14:21;96370.50;;;5.99;100.00
47556;BME280;33291;46.222;26.460;2023-03-21T05:16:48;96368.28;;;6.06;100.00
47556;BME280;33291;46.222;26.460;2023-03-21T05:19:22;96375.81;;;6.09;100.00
47556;BME280;33291;46.222;26.460;2023-03-21T05:21:48;96372.38;;;6.09;100.00
47556;BME280;33291;46.222;26.460;2023-03-21T05:24:19;96365.47;;;6.09;100.00
47556;BME280;33291;46.222;26.460;2023-03-21T05:26:45;96376.06;;;6.17;100.00
47556;BME280;33291;46.222;26.460;2023-03-21T05:29:16;96371.59;;;6.19;100.00
47556;BME280;33291;46.222;26.460;2023-03-21T05:31:43;96373.84;;;6.24;100.00
47556;BME280;33291;46.222;26.460;2023-03-21T05:34:09;96366.31;;;6.21;100.00
47556;BME280;33291;46.222;26.460;2023-03-21T05:36:34;96376.78;;;6.31;100.00
47556;BME280;33291;46.222;26.460;2023-03-21T05:39:00;96384.22;;;6.35;100.00
47556;BME280;33291;46.222;26.460;2023-03-21T05:41:26;96372.31;;;6.33;100.00
47556;BME280;33291;46.222;26.460;2023-03-21T05:43:51;96369.28;;;6.39;100.00
47556;BME280;33291;46.222;26.460;2023-03-21T05:46:17;96376.22;;;6.50;100.00
47556;BME280;33291;46.222;26.460;2023-03-21T05:48:42;96381.88;;;6.55;100.00
47556;BME280;33291;46.222;26.460;2023-03-21T05:51:08;96384.13;;;6.60;100.00
47556;BME280;33291;46.222;26.460;2023-03-21T05:53:33;96375.44;;;6.61;100.00
47556;BME280;33291;46.222;26.460;2023-03-21T05:55:59;96370.00;;;6.64;100.00
47556;BME280;33291;46.222;26.460;2023-03-21T05:58:24;96359.16;;;6.58;100.00
47556;BME280;33291;46.222;26.460;2023-03-21T06:00:50;96376.22;;;6.72;100.00
47556;BME280;33291;46.222;26.460;2023-03-21T06:03:15;96382.00;;;6.76;100.00
47556;BME280;33291;46.222;26.460;2023-03-21T06:05:41;96371.16;;;6.71;100.00
47556;BME280;33291;46.222;26.460;2023-03-21T06:08:07;96351.41;;;6.58;100.00
47556;BME280;33291;46.222;26.460;2023-03-21T06:10:32;96382.47;;;6.81;100.00
47556;BME280;33291;46.222;26.460;2023-03-21T06:12:57;96384.13;;;6.82;100.00
47556;BME280;33291;46.222;26.460;2023-03-21T06:15:23;96388.13;;;6.86;100.00
47556;BME280;33291;46.222;26.460;2023-03-21T06:17:49;96393.88;;;6.90;100.00
47556;BME280;33291;46.222;26.460;2023-03-21T06:20:14;96379.53;;;6.86;100.00
47556;BME280;33291;46.222;26.460;2023-03-21T06:22:40;96378.47;;;6.88;100.00
47556;BME280;33291;46.222;26.460;2023-03-21T06:25:06;96383.50;;;7.01;100.00
47556;BME280;33291;46.222;26.460;2023-03-21T06:27:33;96384.34;;;7.02;100.00
47556;BME280;33291;46.222;26.460;2023-03-21T06:29:59;96380.69;;;7.04;100.00
47556;BME280;33291;46.222;26.460;2023-03-21T06:32:25;96383.25;;;7.04;100.00
47556;BME280;33291;46.222;26.460;2023-03-21T06:34:51;96377.84;;;7.07;100.00
47556;BME280;33291;46.222;26.460;2023-03-21T06:37:17;96367.03;;;7.02;100.00
47556;BME280;33291;46.222;26.460;2023-03-21T06:39:43;96388.56;;;7.14;100.00
47556;BME280;33291;46.222;26.460;2023-03-21T06:42:09;96381.50;;;7.16;100.00
47556;BME280;33291;46.222;26.460;2023-03-21T06:44:35;96377.72;;;7.20;100.00
47556;BME280;33291;46.222;26.460;2023-03-21T06:47:01;96386.19;;;7.22;100.00
47556;BME280;33291;46.222;26.460;2023-03-21T06:49:26;96368.78;;;7.13;100.00
47556;BME280;33291;46.222;26.460;2023-03-21T06:51:52;96383.84;;;7.31;100.00
47556;BME280;33291;46.222;26.460;2023-03-21T06:54:18;96390.41;;;7.35;100.00
47556;BME280;33291;46.222;26.460;2023-03-21T06:56:44;96387.56;;;7.38;100.00
47556;BME280;33291;46.222;26.460;2023-03-21T06:59:10;96376.50;;;7.36;100.00
47556;BME280;33291;46.222;26.460;2023-03-21T07:01:35;96377.66;;;7.43;100.00
47556;BME280;33291;46.222;26.460;2023-03-21T07:04:01;96386.75;;;7.49;100.00
47556;BME280;33291;46.222;26.460;2023-03-21T07:06:27;96386.63;;;7.50;100.00
47556;BME280;33291;46.222;26.460;2023-03-21T07:08:53;96392.00;;;7.58;100.00
47556;BME280;33291;46.222;26.460;2023-03-21T07:11:19;96378.09;;;7.59;100.00
47556;BME280;33291;46.222;26.460;2023-03-21T07:13:45;96385.25;;;7.67;100.00
47556;BME280;33291;46.222;26.460;2023-03-21T07:16:13;96377.47;;;7.67;100.00
47556;BME280;33291;46.222;26.460;2023-03-21T07:18:39;96354.88;;;7.58;100.00
47556;BME280;33291;46.222;26.460;2023-03-21T07:21:04;96387.91;;;7.77;100.00
47556;BME280;33291;46.222;26.460;2023-03-21T07:23:30;96387.53;;;7.81;100.00
47556;BME280;33291;46.222;26.460;2023-03-21T07:25:55;96397.41;;;7.88;100.00
47556;BME280;33291;46.222;26.460;2023-03-21T07:28:21;96398.00;;;7.91;100.00
47556;BME280;33291;46.222;26.460;2023-03-21T07:30:55;96396.53;;;7.98;100.00
47556;BME280;33291;46.222;26.460;2023-03-21T07:33:22;96395.22;;;8.04;100.00
47556;BME280;33291;46.222;26.460;2023-03-21T07:35:52;96395.56;;;8.11;100.00
47556;BME280;33291;46.222;26.460;2023-03-21T07:38:18;96393.53;;;8.14;100.00
47556;BME280;33291;46.222;26.460;2023-03-21T07:40:46;96394.09;;;8.18;100.00
47556;BME280;33291;46.222;26.460;2023-03-21T07:43:12;96380.44;;;8.16;100.00
47556;BME280;33291;46.222;26.460;2023-03-21T07:45:37;96398.75;;;8.24;100.00
47556;BME280;33291;46.222;26.460;2023-03-21T07:48:03;96385.91;;;8.23;100.00
47556;BME280;33291;46.222;26.460;2023-03-21T07:50:29;96400.84;;;8.30;100.00
47556;BME280;33291;46.222;26.460;2023-03-21T07:52:54;96388.84;;;8.29;100.00
47556;BME280;33291;46.222;26.460;2023-03-21T07:55:20;96395.53;;;8.32;100.00
47556;BME280;33291;46.222;26.460;2023-03-21T07:57:48;96390.09;;;8.35;100.00
47556;BME280;33291;46.222;26.460;2023-03-21T08:00:17;96390.41;;;8.42;100.00
47556;BME280;33291;46.222;26.460;2023-03-21T08:02:51;96379.00;;;8.44;100.00
47556;BME280;33291;46.222;26.460;2023-03-21T08:05:26;96386.16;;;8.52;100.00
47556;BME280;33291;46.222;26.460;2023-03-21T08:07:52;96392.44;;;8.59;100.00
47556;BME280;33291;46.222;26.460;2023-03-21T08:10:18;96386.88;;;8.64;100.00
47556;BME280;33291;46.222;26.460;2023-03-21T08:12:44;96389.31;;;8.65;100.00
47556;BME280;33291;46.222;26.460;2023-03-21T08:15:11;96388.13;;;8.69;100.00
47556;BME280;33291;46.222;26.460;2023-03-21T08:17:37;96380.22;;;8.71;100.00
47556;BME280;33291;46.222;26.460;2023-03-21T08:20:05;96389.00;;;8.80;100.00
47556;BME280;33291;46.222;26.460;2023-03-21T08:22:32;96377.41;;;8.84;100.00
47556;BME280;33291;46.222;26.460;2023-03-21T08:24:58;96383.28;;;8.86;100.00
47556;BME280;33291;46.222;26.460;2023-03-21T08:27:24;96399.47;;;8.99;100.00
47556;BME280;33291;46.222;26.460;2023-03-21T08:29:50;96394.00;;;9.02;100.00
47556;BME280;33291;46.222;26.460;2023-03-21T08:32:17;96385.28;;;9.03;100.00
47556;BME280;33291;46.222;26.460;2023-03-21T08:34:42;96392.09;;;9.04;100.00
47556;BME280;33291;46.222;26.460;2023-03-21T08:37:08;96397.34;;;9.14;100.00
47556;BME280;33291;46.222;26.460;2023-03-21T08:39:33;96392.13;;;9.14;100.00
47556;BME280;33291;46.222;26.460;2023-03-21T08:41:59;96394.59;;;9.16;100.00
47556;BME280;33291;46.222;26.460;2023-03-21T08:44:24;96377.63;;;9.12;100.00
47556;BME280;33291;46.222;26.460;2023-03-21T08:46:51;96388.88;;;9.22;100.00
47556;BME280;33291;46.222;26.460;2023-03-21T08:49:16;96377.22;;;9.16;100.00
47556;BME280;33291;46.222;26.460;2023-03-21T08:51:41;96391.88;;;9.27;100.00
47556;BME280;33291;46.222;26.460;2023-03-21T08:54:19;96389.00;;;9.30;100.00
47556;BME280;33291;46.222;26.460;2023-03-21T08:56:45;96393.00;;;9.34;100.00
47556;BME280;33291;46.222;26.460;2023-03-21T08:59:11;96386.59;;;9.38;100.00
47556;BME280;33291;46.222;26.460;2023-03-21T09:01:37;96372.06;;;9.36;100.00
47556;BME280;33291;46.222;26.460;2023-03-21T09:04:03;96385.06;;;9.46;100.00
47556;BME280;33291;46.222;26.460;2023-03-21T09:06:32;96381.25;;;9.50;100.00
47556;BME280;33291;46.222;26.460;2023-03-21T09:08:58;96387.84;;;9.54;100.00
47556;BME280;33291;46.222;26.460;2023-03-21T09:11:24;96378.53;;;9.51;100.00
47556;BME280;33291;46.222;26.460;2023-03-21T09:13:50;96373.44;;;9.50;100.00
47556;BME280;33291;46.222;26.460;2023-03-21T09:16:16;96373.31;;;9.51;100.00
47556;BME280;33291;46.222;26.460;2023-03-21T09:18:41;96379.91;;;9.55;100.00
47556;BME280;33291;46.222;26.460;2023-03-21T09:21:12;96367.97;;;9.53;100.00
47556;BME280;33291;46.222;26.460;2023-03-21T09:23:41;96371.81;;;9.58;100.00
47556;BME280;33291;46.222;26.460;2023-03-21T09:26:09;96371.28;;;9.65;100.00
47556;BME280;33291;46.222;26.460;2023-03-21T09:28:35;96365.66;;;9.59;100.00
47556;BME280;33291;46.222;26.460;2023-03-21T09:31:03;96370.34;;;9.66;100.00
47556;BME280;33291;46.222;26.460;2023-03-21T09:33:29;96379.06;;;9.74;100.00
47556;BME280;33291;46.222;26.460;2023-03-21T09:35:55;96375.53;;;9.75;100.00
47556;BME280;33291;46.222;26.460;2023-03-21T09:38:22;96372.13;;;9.75;100.00
47556;BME280;33291;46.222;26.460;2023-03-21T09:41:07;96371.00;;;9.77;100.00
47556;BME280;33291;46.222;26.460;2023-03-21T09:44:09;96370.72;;;9.81;100.00
47556;BME280;33291;46.222;26.460;2023-03-21T09:46:48;96374.03;;;9.83;100.00
47556;BME280;33291;46.222;26.460;2023-03-21T09:49:20;96375.38;;;9.87;100.00
47556;BME280;33291;46.222;26.460;2023-03-21T09:51:48;96377.47;;;9.93;100.00
47556;BME280;33291;46.222;26.460;2023-03-21T09:54:22;96371.28;;;9.94;100.00
47556;BME280;33291;46.222;26.460;2023-03-21T09:56:53;96376.34;;;9.95;100.00
47556;BME280;33291;46.222;26.460;2023-03-21T09:59:37;96375.53;;;9.95;100.00
47556;BME280;33291;46.222;26.460;2023-03-21T10:02:27;96382.09;;;9.99;100.00
47556;BME280;33291;46.222;26.460;2023-03-21T10:04:58;96368.66;;;9.94;100.00
47556;BME280;33291;46.222;26.460;2023-03-21T10:07:25;96379.22;;;10.02;100.00
47556;BME280;33291;46.222;26.460;2023-03-21T10:09:53;96351.81;;;9.88;100.00
47556;BME280;33291;46.222;26.460;2023-03-21T10:12:22;96368.69;;;10.04;100.00
47556;BME280;33291;46.222;26.460;2023-03-21T10:14:54;96366.22;;;10.02;99.69
47556;BME280;33291;46.222;26.460;2023-03-21T10:20:19;96381.00;;;10.11;98.13
47556;BME280;33291;46.222;26.460;2023-03-21T10:22:47;96358.00;;;9.97;97.66
47556;BME280;33291;46.222;26.460;2023-03-21T10:25:21;96367.28;;;10.09;98.18
47556;BME280;33291;46.222;26.460;2023-03-21T10:27:49;96368.94;;;10.10;98.01
47556;BME280;33291;46.222;26.460;2023-03-21T10:31:01;96371.94;;;10.16;98.12
47556;BME280;33291;46.222;26.460;2023-03-21T10:33:28;96370.03;;;10.18;98.68
47556;BME280;33291;46.222;26.460;2023-03-21T10:35:59;96372.50;;;10.19;97.62
47556;BME280;33291;46.222;26.460;2023-03-21T10:38:26;96362.50;;;10.14;97.15
47556;BME280;33291;46.222;26.460;2023-03-21T10:40:52;96368.78;;;10.22;96.82
47556;BME280;33291;46.222;26.460;2023-03-21T10:45:53;96369.47;;;10.24;96.61
47556;BME280;33291;46.222;26.460;2023-03-21T10:48:22;96367.81;;;10.23;96.31
47556;BME280;33291;46.222;26.460;2023-03-21T10:50:50;96371.13;;;10.25;96.90
47556;BME280;33291;46.222;26.460;2023-03-21T10:53:22;96372.75;;;10.26;98.11
47556;BME280;33291;46.222;26.460;2023-03-21T10:55:53;96365.91;;;10.25;98.31
47556;BME280;33291;46.222;26.460;2023-03-21T10:58:25;96356.31;;;10.25;97.71
47556;BME280;33291;46.222;26.460;2023-03-21T11:00:56;96369.47;;;10.34;98.34
47556;BME280;33291;46.222;26.460;2023-03-21T11:03:28;96356.44;;;10.34;98.76
47556;BME280;33291;46.222;26.460;2023-03-21T11:06:07;96361.25;;;10.38;99.17
47556;BME280;33291;46.222;26.460;2023-03-21T11:08:41;96349.19;;;10.37;97.67
47556;BME280;33291;46.222;26.460;2023-03-21T11:11:09;96357.13;;;10.45;96.69
47556;BME280;33291;46.222;26.460;2023-03-21T11:13:43;96360.38;;;10.47;95.45
47556;BME280;33291;46.222;26.460;2023-03-21T11:16:17;96359.28;;;10.50;95.84
47556;BME280;33291;46.222;26.460;2023-03-21T11:18:43;96357.34;;;10.52;94.90
47556;BME280;33291;46.222;26.460;2023-03-21T11:21:11;96351.34;;;10.52;93.48
47556;BME280;33291;46.222;26.460;2023-03-21T11:23:46;96336.56;;;10.42;92.50
47556;BME280;33291;46.222;26.460;2023-03-21T11:26:30;96355.16;;;10.57;92.02
47556;BME280;33291;46.222;26.460;2023-03-21T11:28:57;96356.13;;;10.56;91.21
47556;BME280;33291;46.222;26.460;2023-03-21T11:31:39;96352.00;;;10.63;92.03
47556;BME280;33291;46.222;26.460;2023-03-21T11:34:07;96349.38;;;10.63;91.44
47556;BME280;33291;46.222;26.460;2023-03-21T11:36:35;96350.75;;;10.68;91.23
47556;BME280;33291;46.222;26.460;2023-03-21T11:41:33;96340.56;;;10.74;90.50
47556;BME280;33291;46.222;26.460;2023-03-21T11:44:00;96343.84;;;10.76;89.24
47556;BME280;33291;46.222;26.460;2023-03-21T11:46:28;96332.75;;;10.74;87.32
47556;BME280;33291;46.222;26.460;2023-03-21T11:48:56;96320.31;;;10.68;85.72
47556;BME280;33291;46.222;26.460;2023-03-21T11:52:02;96341.09;;;10.78;85.74
47556;BME280;33291;46.222;26.460;2023-03-21T11:54:34;96341.94;;;10.78;84.95
47556;BME280;33291;46.222;26.460;2023-03-21T11:57:20;96342.72;;;10.79;84.52
47556;BME280;33291;46.222;26.460;2023-03-21T11:59:58;96337.66;;;10.77;83.89
47556;BME280;33291;46.222;26.460;2023-03-21T12:05:26;96327.09;;;10.79;82.13
47556;BME280;33291;46.222;26.460;2023-03-21T12:11:00;96316.69;;;10.79;80.79
47556;BME280;33291;46.222;26.460;2023-03-21T12:14:01;96323.78;;;10.87;79.77
47556;BME280;33291;46.222;26.460;2023-03-21T12:19:59;96317.16;;;10.92;78.99
47556;BME280;33291;46.222;26.460;2023-03-21T12:25:06;96313.75;;;10.92;78.91
47556;BME280;33291;46.222;26.460;2023-03-21T12:33:13;96312.59;;;11.04;77.65
47556;BME280;33291;46.222;26.460;2023-03-21T12:38:16;96305.56;;;11.05;77.22
47556;BME280;33291;46.222;26.460;2023-03-21T12:48:55;96297.03;;;11.12;76.41
47556;BME280;33291;46.222;26.460;2023-03-21T12:51:28;96276.75;;;11.06;75.25
47556;BME280;33291;46.222;26.460;2023-03-21T12:59:20;96277.38;;;11.18;74.69
47556;BME280;33291;46.222;26.460;2023-03-21T13:01:50;96278.56;;;11.24;74.52
47556;BME280;33291;46.222;26.460;2023-03-21T13:04:36;96279.09;;;11.27;72.44
47556;BME280;33291;46.222;26.460;2023-03-21T13:07:07;96248.44;;;11.11;71.76
47556;BME280;33291;46.222;26.460;2023-03-21T13:09:38;96273.06;;;11.27;71.65
47556;BME280;33291;46.222;26.460;2023-03-21T13:17:46;96264.66;;;11.33;71.43
47556;BME280;33291;46.222;26.460;2023-03-21T13:23:01;96270.88;;;11.40;69.61
47556;BME280;33291;46.222;26.460;2023-03-21T13:25:30;96265.38;;;11.43;70.03
47556;BME280;33291;46.222;26.460;2023-03-21T13:28:02;96248.53;;;11.37;70.16
47556;BME280;33291;46.222;26.460;2023-03-21T13:30:29;96261.66;;;11.46;69.00
47556;BME280;33291;46.222;26.460;2023-03-21T13:33:35;96250.09;;;11.48;69.03
47556;BME280;33291;46.222;26.460;2023-03-21T13:36:07;96251.44;;;11.52;69.45
47556;BME280;33291;46.222;26.460;2023-03-21T13:38:34;96251.16;;;11.55;69.59
47556;BME280;33291;46.222;26.460;2023-03-21T13:41:16;96257.03;;;11.58;68.84
47556;BME280;33291;46.222;26.460;2023-03-21T13:59:37;96237.50;;;11.62;65.13
47556;BME280;33291;46.222;26.460;2023-03-21T14:04:56;96211.28;;;11.45;64.98
47556;BME280;33291;46.222;26.460;2023-03-21T14:09:55;96239.81;;;11.65;65.94
47556;BME280;33291;46.222;26.460;2023-03-21T14:12:25;96229.66;;;11.62;66.30
47556;BME280;33291;46.222;26.460;2023-03-21T14:17:53;96236.50;;;11.63;66.19
47556;BME280;33291;46.222;26.460;2023-03-21T14:20:25;96231.75;;;11.58;66.34
47556;BME280;33291;46.222;26.460;2023-03-21T14:22:51;96229.97;;;11.59;67.84
47556;BME280;33291;46.222;26.460;2023-03-21T14:25:19;96244.47;;;11.61;68.32
47556;BME280;33291;46.222;26.460;2023-03-21T14:27:48;96232.50;;;11.50;68.16
47556;BME280;33291;46.222;26.460;2023-03-21T14:30:32;96236.31;;;11.56;68.74
47556;BME280;33291;46.222;26.460;2023-03-21T14:33:14;96233.84;;;11.54;68.56
47556;BME280;33291;46.222;26.460;2023-03-21T14:35:41;96238.72;;;11.49;68.85
47556;BME280;33291;46.222;26.460;2023-03-21T14:38:21;96232.50;;;11.50;67.78
47556;BME280;33291;46.222;26.460;2023-03-21T14:40:49;96226.63;;;11.48;68.41